<?xml version="1.0" encoding="UTF-8" standalone="no" ?>
<gpx xmlns="http://www.topografix.com/GPX/1/1" xmlns:xsi="http://www.w3.org/2001/XMLSchema-instance" xsi:schemaLocation="http://www.topografix.com/GPX/1/1 http://www.topografix.com/GPX/1/1/gpx.xsd" version="1.1" creator="VisuGPX - https://www.visugpx.com">
  <metadata>
    <name>VacancesDricouZoe</name>
  </metadata>
  <trk>
    <name><![CDATA[Journal actif: 2021-07-06 15:22]]></name>
    <trkseg>
      <trkpt lat="43.66964" lon="-1.39062">
        <ele>9.27</ele>
        <time>2021-07-06T17:22:22Z</time>
      </trkpt>
      <trkpt lat="43.66967" lon="-1.39057">
        <ele>11.19</ele>
        <time>2021-07-06T17:22:58Z</time>
      </trkpt>
      <trkpt lat="43.66968" lon="-1.3903">
        <ele>10.71</ele>
        <time>2021-07-06T17:23:12Z</time>
      </trkpt>
      <trkpt lat="43.66965" lon="-1.3902">
        <ele>11.19</ele>
        <time>2021-07-06T17:23:16Z</time>
      </trkpt>
      <trkpt lat="43.67028" lon="-1.39014">
        <ele>9.75</ele>
        <time>2021-07-06T17:23:30Z</time>
      </trkpt>
      <trkpt lat="43.67077" lon="-1.39012">
        <ele>10.23</ele>
        <time>2021-07-06T17:23:42Z</time>
      </trkpt>
      <trkpt lat="43.67085" lon="-1.39017">
        <ele>10.23</ele>
        <time>2021-07-06T17:23:52Z</time>
      </trkpt>
      <trkpt lat="43.67094" lon="-1.39021">
        <ele>10.71</ele>
        <time>2021-07-06T17:24:00Z</time>
      </trkpt>
      <trkpt lat="43.67096" lon="-1.39022">
        <ele>10.71</ele>
        <time>2021-07-06T17:24:01Z</time>
      </trkpt>
      <trkpt lat="43.67074" lon="-1.39093">
        <ele>10.23</ele>
        <time>2021-07-06T17:24:16Z</time>
      </trkpt>
      <trkpt lat="43.67069" lon="-1.39122">
        <ele>10.23</ele>
        <time>2021-07-06T17:24:25Z</time>
      </trkpt>
      <trkpt lat="43.67068" lon="-1.39133">
        <ele>9.75</ele>
        <time>2021-07-06T17:24:28Z</time>
      </trkpt>
      <trkpt lat="43.67067" lon="-1.39138">
        <ele>9.27</ele>
        <time>2021-07-06T17:24:29Z</time>
      </trkpt>
      <trkpt lat="43.67066" lon="-1.39144">
        <ele>9.27</ele>
        <time>2021-07-06T17:24:31Z</time>
      </trkpt>
      <trkpt lat="43.67066" lon="-1.39149">
        <ele>8.79</ele>
        <time>2021-07-06T17:24:32Z</time>
      </trkpt>
      <trkpt lat="43.67061" lon="-1.39153">
        <ele>8.79</ele>
        <time>2021-07-06T17:24:34Z</time>
      </trkpt>
      <trkpt lat="43.67057" lon="-1.39157">
        <ele>7.83</ele>
        <time>2021-07-06T17:24:35Z</time>
      </trkpt>
      <trkpt lat="43.67052" lon="-1.39163">
        <ele>7.35</ele>
        <time>2021-07-06T17:24:36Z</time>
      </trkpt>
      <trkpt lat="43.66976" lon="-1.39241">
        <ele>9.27</ele>
        <time>2021-07-06T17:24:46Z</time>
      </trkpt>
      <trkpt lat="43.66928" lon="-1.39281">
        <ele>9.75</ele>
        <time>2021-07-06T17:24:51Z</time>
      </trkpt>
      <trkpt lat="43.66918" lon="-1.39286">
        <ele>9.75</ele>
        <time>2021-07-06T17:24:52Z</time>
      </trkpt>
      <trkpt lat="43.66908" lon="-1.39291">
        <ele>9.75</ele>
        <time>2021-07-06T17:24:53Z</time>
      </trkpt>
      <trkpt lat="43.66857" lon="-1.39311">
        <ele>9.27</ele>
        <time>2021-07-06T17:24:59Z</time>
      </trkpt>
      <trkpt lat="43.66852" lon="-1.39314">
        <ele>9.27</ele>
        <time>2021-07-06T17:25:00Z</time>
      </trkpt>
      <trkpt lat="43.66846" lon="-1.3931">
        <ele>8.79</ele>
        <time>2021-07-06T17:25:01Z</time>
      </trkpt>
      <trkpt lat="43.66823" lon="-1.39295">
        <ele>8.31</ele>
        <time>2021-07-06T17:25:04Z</time>
      </trkpt>
      <trkpt lat="43.66817" lon="-1.39291">
        <ele>7.83</ele>
        <time>2021-07-06T17:25:05Z</time>
      </trkpt>
      <trkpt lat="43.66734" lon="-1.39283">
        <ele>7.83</ele>
        <time>2021-07-06T17:25:15Z</time>
      </trkpt>
      <trkpt lat="43.66647" lon="-1.39258">
        <ele>5.91</ele>
        <time>2021-07-06T17:25:25Z</time>
      </trkpt>
      <trkpt lat="43.66638" lon="-1.39256">
        <ele>5.91</ele>
        <time>2021-07-06T17:25:26Z</time>
      </trkpt>
      <trkpt lat="43.66628" lon="-1.39257">
        <ele>5.42</ele>
        <time>2021-07-06T17:25:27Z</time>
      </trkpt>
      <trkpt lat="43.66618" lon="-1.39258">
        <ele>4.94</ele>
        <time>2021-07-06T17:25:28Z</time>
      </trkpt>
      <trkpt lat="43.66608" lon="-1.39261">
        <ele>4.46</ele>
        <time>2021-07-06T17:25:29Z</time>
      </trkpt>
      <trkpt lat="43.66598" lon="-1.39266">
        <ele>3.98</ele>
        <time>2021-07-06T17:25:30Z</time>
      </trkpt>
      <trkpt lat="43.66589" lon="-1.39272">
        <ele>3.02</ele>
        <time>2021-07-06T17:25:31Z</time>
      </trkpt>
      <trkpt lat="43.66519" lon="-1.39312">
        <ele>3.02</ele>
        <time>2021-07-06T17:25:41Z</time>
      </trkpt>
      <trkpt lat="43.66508" lon="-1.3932">
        <ele>3.5</ele>
        <time>2021-07-06T17:25:43Z</time>
      </trkpt>
      <trkpt lat="43.66425" lon="-1.3934">
        <ele>5.91</ele>
        <time>2021-07-06T17:25:56Z</time>
      </trkpt>
      <trkpt lat="43.66407" lon="-1.39357">
        <ele>7.35</ele>
        <time>2021-07-06T17:26:01Z</time>
      </trkpt>
      <trkpt lat="43.66407" lon="-1.39357">
        <ele>7.35</ele>
        <time>2021-07-06T17:26:02Z</time>
      </trkpt>
      <trkpt lat="43.66397" lon="-1.39366">
        <ele>7.83</ele>
        <time>2021-07-06T17:26:03Z</time>
      </trkpt>
      <trkpt lat="43.66397" lon="-1.39366">
        <ele>8.31</ele>
        <time>2021-07-06T17:26:04Z</time>
      </trkpt>
      <trkpt lat="43.66395" lon="-1.39374">
        <ele>8.79</ele>
        <time>2021-07-06T17:26:05Z</time>
      </trkpt>
      <trkpt lat="43.66394" lon="-1.39382">
        <ele>9.27</ele>
        <time>2021-07-06T17:26:06Z</time>
      </trkpt>
      <trkpt lat="43.66385" lon="-1.39414">
        <ele>10.23</ele>
        <time>2021-07-06T17:26:10Z</time>
      </trkpt>
      <trkpt lat="43.66383" lon="-1.3942">
        <ele>10.23</ele>
        <time>2021-07-06T17:26:11Z</time>
      </trkpt>
      <trkpt lat="43.66386" lon="-1.39465">
        <ele>9.27</ele>
        <time>2021-07-06T17:26:19Z</time>
      </trkpt>
      <trkpt lat="43.66411" lon="-1.39589">
        <ele>5.42</ele>
        <time>2021-07-06T17:26:35Z</time>
      </trkpt>
      <trkpt lat="43.66421" lon="-1.39603">
        <ele>4.46</ele>
        <time>2021-07-06T17:26:40Z</time>
      </trkpt>
      <trkpt lat="43.66424" lon="-1.39607">
        <ele>4.46</ele>
        <time>2021-07-06T17:26:41Z</time>
      </trkpt>
      <trkpt lat="43.66424" lon="-1.39608">
        <ele>4.46</ele>
        <time>2021-07-06T17:26:42Z</time>
      </trkpt>
      <trkpt lat="43.66419" lon="-1.39617">
        <ele>3.98</ele>
        <time>2021-07-06T17:26:43Z</time>
      </trkpt>
      <trkpt lat="43.66416" lon="-1.39621">
        <ele>3.98</ele>
        <time>2021-07-06T17:26:44Z</time>
      </trkpt>
      <trkpt lat="43.66418" lon="-1.39633">
        <ele>3.98</ele>
        <time>2021-07-06T17:26:45Z</time>
      </trkpt>
      <trkpt lat="43.6642" lon="-1.39637">
        <ele>3.98</ele>
        <time>2021-07-06T17:26:46Z</time>
      </trkpt>
      <trkpt lat="43.66421" lon="-1.39642">
        <ele>3.5</ele>
        <time>2021-07-06T17:26:47Z</time>
      </trkpt>
      <trkpt lat="43.66423" lon="-1.39647">
        <ele>3.98</ele>
        <time>2021-07-06T17:26:48Z</time>
      </trkpt>
      <trkpt lat="43.66425" lon="-1.39653">
        <ele>3.98</ele>
        <time>2021-07-06T17:26:49Z</time>
      </trkpt>
      <trkpt lat="43.66459" lon="-1.39752">
        <ele>4.94</ele>
        <time>2021-07-06T17:27:01Z</time>
      </trkpt>
      <trkpt lat="43.66462" lon="-1.39769">
        <ele>4.94</ele>
        <time>2021-07-06T17:27:02Z</time>
      </trkpt>
      <trkpt lat="43.66462" lon="-1.39769">
        <ele>4.94</ele>
        <time>2021-07-06T17:27:04Z</time>
      </trkpt>
      <trkpt lat="43.66467" lon="-1.39783">
        <ele>4.94</ele>
        <time>2021-07-06T17:27:05Z</time>
      </trkpt>
      <trkpt lat="43.66475" lon="-1.39804">
        <ele>5.91</ele>
        <time>2021-07-06T17:27:08Z</time>
      </trkpt>
      <trkpt lat="43.66478" lon="-1.39812">
        <ele>6.39</ele>
        <time>2021-07-06T17:27:09Z</time>
      </trkpt>
      <trkpt lat="43.66509" lon="-1.39938">
        <ele>4.46</ele>
        <time>2021-07-06T17:27:20Z</time>
      </trkpt>
      <trkpt lat="43.66528" lon="-1.40098">
        <ele>2.06</ele>
        <time>2021-07-06T17:27:31Z</time>
      </trkpt>
      <trkpt lat="43.66556" lon="-1.40255">
        <ele>1.58</ele>
        <time>2021-07-06T17:27:42Z</time>
      </trkpt>
      <trkpt lat="43.66573" lon="-1.40335">
        <ele>2.54</ele>
        <time>2021-07-06T17:27:50Z</time>
      </trkpt>
      <trkpt lat="43.66594" lon="-1.40438">
        <ele>4.94</ele>
        <time>2021-07-06T17:27:59Z</time>
      </trkpt>
      <trkpt lat="43.66613" lon="-1.4055">
        <ele>8.79</ele>
        <time>2021-07-06T17:28:09Z</time>
      </trkpt>
      <trkpt lat="43.66622" lon="-1.40651">
        <ele>5.91</ele>
        <time>2021-07-06T17:28:17Z</time>
      </trkpt>
      <trkpt lat="43.66627" lon="-1.40696">
        <ele>3.98</ele>
        <time>2021-07-06T17:28:20Z</time>
      </trkpt>
      <trkpt lat="43.66631" lon="-1.40708">
        <ele>3.98</ele>
        <time>2021-07-06T17:28:21Z</time>
      </trkpt>
      <trkpt lat="43.66636" lon="-1.40721">
        <ele>3.02</ele>
        <time>2021-07-06T17:28:22Z</time>
      </trkpt>
      <trkpt lat="43.66645" lon="-1.4075">
        <ele>2.06</ele>
        <time>2021-07-06T17:28:23Z</time>
      </trkpt>
      <trkpt lat="43.66645" lon="-1.4075">
        <ele>1.1</ele>
        <time>2021-07-06T17:28:24Z</time>
      </trkpt>
      <trkpt lat="43.66724" lon="-1.40912">
        <ele>-9</ele>
        <time>2021-07-06T17:28:34Z</time>
      </trkpt>
      <trkpt lat="43.66844" lon="-1.41164">
        <ele>-15.24</ele>
        <time>2021-07-06T17:28:48Z</time>
      </trkpt>
      <trkpt lat="43.66927" lon="-1.41328">
        <ele>-14.28</ele>
        <time>2021-07-06T17:28:58Z</time>
      </trkpt>
      <trkpt lat="43.67021" lon="-1.41491">
        <ele>-17.65</ele>
        <time>2021-07-06T17:29:08Z</time>
      </trkpt>
      <trkpt lat="43.67089" lon="-1.41651">
        <ele>-18.13</ele>
        <time>2021-07-06T17:29:18Z</time>
      </trkpt>
      <trkpt lat="43.6713" lon="-1.41749">
        <ele>-10.92</ele>
        <time>2021-07-06T17:29:27Z</time>
      </trkpt>
      <trkpt lat="43.6713" lon="-1.41749">
        <ele>-9.96</ele>
        <time>2021-07-06T17:29:28Z</time>
      </trkpt>
      <trkpt lat="43.67137" lon="-1.41749">
        <ele>-9.48</ele>
        <time>2021-07-06T17:29:29Z</time>
      </trkpt>
      <trkpt lat="43.67143" lon="-1.41753">
        <ele>-9</ele>
        <time>2021-07-06T17:29:30Z</time>
      </trkpt>
      <trkpt lat="43.67147" lon="-1.41759">
        <ele>-8.03</ele>
        <time>2021-07-06T17:29:31Z</time>
      </trkpt>
      <trkpt lat="43.67149" lon="-1.41766">
        <ele>-7.55</ele>
        <time>2021-07-06T17:29:32Z</time>
      </trkpt>
      <trkpt lat="43.67149" lon="-1.41769">
        <ele>-8.03</ele>
        <time>2021-07-06T17:29:33Z</time>
      </trkpt>
      <trkpt lat="43.67145" lon="-1.41787">
        <ele>-8.03</ele>
        <time>2021-07-06T17:29:34Z</time>
      </trkpt>
      <trkpt lat="43.67149" lon="-1.41796">
        <ele>-7.55</ele>
        <time>2021-07-06T17:29:35Z</time>
      </trkpt>
      <trkpt lat="43.67197" lon="-1.41908">
        <ele>-5.15</ele>
        <time>2021-07-06T17:29:47Z</time>
      </trkpt>
      <trkpt lat="43.67226" lon="-1.41976">
        <ele>-0.82</ele>
        <time>2021-07-06T17:29:58Z</time>
      </trkpt>
      <trkpt lat="43.67236" lon="-1.41998">
        <ele>0.62</ele>
        <time>2021-07-06T17:30:02Z</time>
      </trkpt>
      <trkpt lat="43.67239" lon="-1.42005">
        <ele>1.1</ele>
        <time>2021-07-06T17:30:03Z</time>
      </trkpt>
      <trkpt lat="43.67233" lon="-1.42014">
        <ele>2.06</ele>
        <time>2021-07-06T17:30:04Z</time>
      </trkpt>
      <trkpt lat="43.67233" lon="-1.42013">
        <ele>1.1</ele>
        <time>2021-07-06T17:30:06Z</time>
      </trkpt>
    </trkseg>
  </trk>
</gpx>